Aviation Digital Data Service (ADDS)

Output produced by METARs form (1704 UTC 24 April 2017)
found at http://www.aviationweather.gov/adds/metars/
 
KBWI 241654Z 06013KT 10SM FEW044 OVC050 14/05 A3007 RMK AO2 SLP180 T01440050
KBWI 241459Z 2415/2518 05012G22KT P6SM -RA SCT025 OVC050 
     FM242100 05012G20KT 5SM -RA BKN025 OVC050 
     FM250100 05010G18KT 5SM -RA BKN015 OVC050 
     FM250300 04010G18KT 5SM -RA BKN008 OVC015 
     FM250700 04010KT 5SM -RA BR BKN008 OVC015 
     FM251500 04010G18KT 5SM -RA BKN008 OVC015
       
KMTN 241650Z 05004KT 10SM OVC060 15/07 A3010
KMTN 241129Z 2412/2512 05012G22KT P6SM VCSH SCT025 OVC050 
     FM242100 05012G20KT 5SM -RA BKN025 OVC050 
     FM250100 05010G18KT 5SM -RA BKN015 OVC025 
     FM250300 04010G18KT 5SM -RA BKN008 OVC015 
     FM250700 04010KT 5SM -RA BR BKN008 OVC015
       
KCGE 241640Z AUTO 06009G19KT 10SM FEW021 SCT036 BKN055 14/10 A3004 RMK A01
KADW 241659Z AUTO 04009KT 10SM -DZ BKN040 12/08 A3004 RMK AO2 DZB58 SLP180
TAF AMD KADW 241612Z 2416/2515 05012KT 8000 -RA OVC040 QNH3002INS 
     BECMG 2420/2421 05012G18KT 8000 -RA OVC010 QNH2995INS 
     BECMG 2422/2423 05012G18KT 6000 -RA OVC006 QNH2989INS 
     BECMG 2512/2513 05015G25KT 8000 -RA BR OVC006 QNH2974INS TX15/2420Z TN09/2506Z
       
KCBE 241643Z AUTO 00000KT 10SM SCT021 SCT027 SCT041 14/07 A3012 RMK AO1
KFME 241639Z AUTO 04005KT 10SM OVC050 13/05 A3009 RMK AO1
KFDK 241647Z 06010KT 10SM OVC060 16/09 A3010
KHGR 241653Z 06006KT 10SM OVC055 14/07 A3008 RMK AO2 SLP195 T01440072
K2W6 241641Z AUTO 05004KT 7SM OVC017 12/10 A3003 RMK AO1
K2G4 241640Z AUTO 11018G23KT 10SM SCT050 SCT065 OVC075 07/03 A3003 RMK AO1
KOXB 241653Z AUTO 05012G20KT 6SM -RA BR FEW008 OVC022 12/10 A3005 RMK AO2 RAE24B44 SLP176 P0003 T01170100
KSBY 241654Z 07019G22KT 10SM -RA SCT011 OVC029 12/11 A3004 RMK AO2 RAE08B17 SLP173 P0000 T01220111 $
KSBY 241406Z 2414/2512 06012G19KT P6SM VCSH SCT015 OVC035 
     TEMPO 2414/2416 BKN015 
     FM241600 06014G21KT P6SM VCSH OVC012 
     FM241800 06014G22KT P6SM VCSH OVC006 
     FM242000 06015G23KT 5SM -RA OVC005
       
KW29 241635Z AUTO 06008KT 7SM HZ OVC046 13/08 A3007 RMK AO2 TSNO
KDMW 241640Z AUTO 07005KT 10SM SCT050 OVC060 14/06 A3009 RMK AO2